Time;durP1;ratioP1;P1;durP2;ratioP2;P2;SDS_P1;SDS_P2;PMS_P1;PMS_P2;Temp;Humidity;BMP_temperature;BMP_pressure;BME280_temperature;BME280_humidity;BME280_pressure;Samples;Min_cycle;Max_cycle;Signal;HPM_P1;HPM_P2
2024/01/27 00:01:53;;;;;;;10.70;4.00;;;;;;;4.09;93.16;99816.91;4218430;27;20336;-81
2024/01/27 00:03:56;;;;;;;18.52;4.75;;;;;;;4.03;92.44;99815.28;4256212;27;20290;-81
2024/01/27 00:05:59;;;;;;;10.32;4.78;;;;;;;4.02;93.21;99815.31;4252149;27;20774;-81
2024/01/27 00:08:04;;;;;;;14.48;4.20;;;;;;;3.98;93.53;99821.38;4257276;27;20677;-81
2024/01/27 00:10:08;;;;;;;5.53;4.25;;;;;;;3.96;93.39;99813.66;4239133;27;20196;-81
2024/01/27 00:12:11;;;;;;;8.45;3.90;;;;;;;3.98;92.54;99821.38;4219317;27;20207;-81
2024/01/27 00:14:15;;;;;;;9.98;4.50;;;;;;;3.95;93.38;99821.44;4237236;27;20251;-81
2024/01/27 00:16:18;;;;;;;21.38;5.28;;;;;;;3.95;93.56;99824.00;4236510;27;20219;-81
2024/01/27 00:18:21;;;;;;;34.63;5.65;;;;;;;3.93;94.39;99825.78;4251372;27;20690;-81
2024/01/27 00:20:25;;;;;;;22.15;4.80;;;;;;;3.93;94.15;99836.94;4255518;27;20211;-81
2024/01/27 00:22:29;;;;;;;15.02;5.07;;;;;;;3.90;94.15;99830.97;4237714;27;20735;-81
2024/01/27 00:24:34;;;;;;;11.93;4.18;;;;;;;3.91;93.96;99836.13;4225764;27;20661;-81
2024/01/27 00:26:37;;;;;;;20.38;4.13;;;;;;;3.87;93.55;99828.44;4258165;27;20195;-81
2024/01/27 00:28:40;;;;;;;11.45;4.70;;;;;;;3.83;93.95;99831.94;4253782;27;20230;-81
2024/01/27 00:30:44;;;;;;;38.80;5.13;;;;;;;3.82;93.86;99832.81;4217852;27;20675;-81
2024/01/27 00:32:47;;;;;;;23.02;4.93;;;;;;;3.84;93.58;99846.53;4240724;27;20253;-81
2024/01/27 00:34:50;;;;;;;10.10;4.28;;;;;;;3.83;94.11;99840.53;4241229;27;20315;-81
2024/01/27 00:36:53;;;;;;;15.50;4.60;;;;;;;3.78;94.57;99838.88;4254692;27;20744;-81
2024/01/27 00:38:56;;;;;;;22.27;5.70;;;;;;;3.74;94.48;99840.66;4243116;27;20298;-81
2024/01/27 00:41:01;;;;;;;20.08;5.00;;;;;;;3.75;94.47;99844.09;4215855;28;20215;-81
2024/01/27 00:43:04;;;;;;;17.35;4.57;;;;;;;3.77;94.81;99844.91;4254311;27;20298;-83
2024/01/27 00:45:08;;;;;;;27.45;5.10;;;;;;;3.75;94.61;99842.34;4235367;27;20197;-81
2024/01/27 00:47:11;;;;;;;22.40;5.32;;;;;;;3.74;94.00;99837.22;4253468;27;20825;-81
2024/01/27 00:49:15;;;;;;;28.00;4.88;;;;;;;3.71;94.92;99842.41;4254572;27;20207;-81
2024/01/27 00:51:18;;;;;;;23.83;4.82;;;;;;;3.68;94.28;99839.03;4251579;27;20591;-81
2024/01/27 00:53:21;;;;;;;20.95;4.07;;;;;;;3.63;94.16;99845.97;4237345;27;20207;-81
2024/01/27 00:55:25;;;;;;;17.63;5.30;;;;;;;3.56;94.63;99845.19;4223541;28;20211;-81
2024/01/27 00:57:28;;;;;;;17.15;4.30;;;;;;;3.54;94.53;99841.78;4241266;27;20660;-81
2024/01/27 00:59:31;;;;;;;13.32;4.15;;;;;;;3.50;95.30;99844.41;4251822;27;20305;-81
2024/01/27 01:01:35;;;;;;;15.85;4.28;;;;;;;3.43;94.20;99846.22;4234651;27;20619;-81
2024/01/27 01:03:38;;;;;;;11.23;4.00;;;;;;;3.38;94.48;99840.28;4226271;28;20605;-81
2024/01/27 01:05:41;;;;;;;9.80;4.40;;;;;;;3.32;94.91;99844.63;4236581;27;20586;-81
2024/01/27 01:07:44;;;;;;;10.43;4.50;;;;;;;3.27;94.96;99844.69;4251391;27;20760;-84
2024/01/27 01:09:47;;;;;;;17.13;4.88;;;;;;;3.24;95.20;99845.63;4252033;27;20319;-81
2024/01/27 01:11:50;;;;;;;7.45;3.95;;;;;;;3.18;95.57;99843.09;4233868;27;21922;-81
2024/01/27 01:13:55;;;;;;;11.85;4.07;;;;;;;3.13;95.21;99842.28;4232755;27;20684;-81
2024/01/27 01:15:58;;;;;;;14.70;4.10;;;;;;;3.07;94.69;99848.38;4246869;27;20732;-83
2024/01/27 01:18:01;;;;;;;12.20;4.40;;;;;;;3.01;95.26;99847.59;4254990;27;20626;-83
2024/01/27 01:20:06;;;;;;;7.55;4.10;;;;;;;2.92;95.92;99845.94;4253071;27;20202;-83
2024/01/27 01:22:08;;;;;;;6.60;3.92;;;;;;;2.90;94.85;99860.59;4235990;27;20211;-83
2024/01/27 01:24:15;;;;;;;8.90;3.95;;;;;;;2.87;95.14;99864.88;4253198;27;20195;-81
2024/01/27 01:26:19;;;;;;;14.50;4.20;;;;;;;2.85;93.78;99859.75;4227966;27;20200;-81
2024/01/27 01:28:22;;;;;;;8.95;4.20;;;;;;;2.85;93.85;99864.06;4233591;27;20200;-81
2024/01/27 01:30:26;;;;;;;6.97;4.22;;;;;;;2.87;94.13;99865.75;4251267;27;20208;-81
2024/01/27 01:32:29;;;;;;;9.70;4.25;;;;;;;2.90;93.79;99875.16;4250116;27;20211;-80
2024/01/27 01:34:34;;;;;;;8.82;4.55;;;;;;;2.94;93.96;99871.69;4233073;27;20725;-81
2024/01/27 01:36:37;;;;;;;9.90;4.88;;;;;;;2.96;93.95;99869.94;4251168;27;20219;-81
2024/01/27 01:38:41;;;;;;;8.35;5.60;;;;;;;2.97;93.79;99862.22;4235030;27;20287;-81
2024/01/27 01:40:43;;;;;;;5.72;3.72;;;;;;;2.94;92.72;99866.53;4249206;27;20230;-81
2024/01/27 01:42:51;;;;;;;7.03;3.70;;;;;;;2.88;92.68;99864.03;4232264;27;20212;-81
2024/01/27 01:44:54;;;;;;;7.28;3.80;;;;;;;2.82;92.65;99862.34;4243596;27;20206;-80
2024/01/27 01:46:59;;;;;;;5.35;3.47;;;;;;;2.78;92.28;99864.13;4241445;27;20191;-81
2024/01/27 01:49:02;;;;;;;8.38;3.92;;;;;;;2.73;92.26;99861.59;4254236;27;20195;-81
2024/01/27 01:51:06;;;;;;;8.13;4.15;;;;;;;2.70;92.02;99861.63;4234513;27;20200;-81
2024/01/27 01:53:09;;;;;;;6.78;4.38;;;;;;;2.64;92.36;99853.94;4216083;28;20205;-81
2024/01/27 01:55:12;;;;;;;5.82;4.30;;;;;;;2.65;92.93;99858.25;4236828;27;20289;-81
2024/01/27 01:57:16;;;;;;;10.30;4.72;;;;;;;2.63;92.46;99864.25;4253246;27;20222;-81
2024/01/27 01:59:19;;;;;;;7.45;4.53;;;;;;;2.61;92.81;99866.00;4248132;27;20665;-81
2024/01/27 02:01:22;;;;;;;8.82;4.53;;;;;;;2.61;93.31;99871.16;4237909;27;20228;-81
2024/01/27 02:03:28;;;;;;;7.57;4.15;;;;;;;2.67;93.26;99873.69;4225483;27;20256;-81
2024/01/27 02:05:32;;;;;;;6.30;4.15;;;;;;;2.67;92.71;99869.38;4249550;27;20673;-81
2024/01/27 02:07:36;;;;;;;6.82;4.20;;;;;;;2.67;92.69;99873.69;4243622;27;20203;-81
2024/01/27 02:09:39;;;;;;;5.47;3.35;;;;;;;2.69;93.76;99884.81;4237776;27;20208;-81
2024/01/27 02:11:42;;;;;;;7.18;2.78;;;;;;;2.68;94.12;99890.84;4240975;27;20743;-81
2024/01/27 02:13:45;;;;;;;8.07;3.42;;;;;;;2.76;94.06;99895.06;4248327;27;20228;-81
2024/01/27 02:15:49;;;;;;;12.80;2.60;;;;;;;2.76;94.01;99900.19;4248213;27;20642;-81
2024/01/27 02:17:53;;;;;;;6.60;3.40;;;;;;;2.77;94.68;99895.91;4252404;27;20766;-81
2024/01/27 02:20:00;;;;;;;6.22;3.00;;;;;;;2.76;94.06;99894.22;4240286;27;20213;-84
2024/01/27 02:22:03;;;;;;;9.52;3.70;;;;;;;2.72;93.73;99895.09;4253001;27;20222;-81
2024/01/27 02:24:10;;;;;;;16.38;3.50;;;;;;;2.70;93.48;99902.81;4252266;27;20214;-81
2024/01/27 02:26:13;;;;;;;7.55;3.30;;;;;;;2.65;92.88;99899.44;4251812;27;20192;-81
2024/01/27 02:28:16;;;;;;;5.90;3.10;;;;;;;2.55;92.89;99892.66;4257438;27;20201;-80
2024/01/27 02:30:19;;;;;;;9.93;3.20;;;;;;;2.51;93.69;99902.97;4213560;27;20231;-81
2024/01/27 02:32:22;;;;;;;9.57;3.50;;;;;;;2.45;94.36;99916.78;4239265;27;20203;-81
2024/01/27 02:34:25;;;;;;;6.05;3.05;;;;;;;2.41;94.19;99914.22;4234256;27;20252;-81
2024/01/27 02:36:29;;;;;;;5.13;3.42;;;;;;;2.38;94.54;99927.13;4239637;27;20872;-81
2024/01/27 02:38:32;;;;;;;12.98;3.17;;;;;;;2.39;94.67;99929.69;4254465;27;20203;-81
2024/01/27 02:40:36;;;;;;;4.32;2.75;;;;;;;2.37;94.42;99927.97;4255858;27;20431;-81
2024/01/27 02:42:41;;;;;;;4.72;2.58;;;;;;;2.30;94.39;99931.47;4232269;27;20230;-81
2024/01/27 02:44:43;;;;;;;5.85;2.50;;;;;;;2.26;93.69;99939.22;4254892;27;20214;-81
2024/01/27 02:46:47;;;;;;;5.65;2.90;;;;;;;2.21;94.76;99933.22;4235442;27;20208;-81
2024/01/27 02:48:49;;;;;;;5.63;2.95;;;;;;;2.22;94.30;99942.66;4235780;27;20684;-83
2024/01/27 02:50:52;;;;;;;15.02;2.83;;;;;;;2.18;93.71;99934.13;4239768;27;20205;-83
2024/01/27 02:52:55;;;;;;;6.40;3.50;;;;;;;2.18;94.19;99936.69;4233898;27;20238;-83
2024/01/27 02:54:57;;;;;;;7.28;3.30;;;;;;;2.15;93.67;99946.13;4237622;27;20298;-83
2024/01/27 02:57:02;;;;;;;6.32;4.65;;;;;;;2.11;92.85;99944.44;4216782;27;20210;-83
2024/01/27 02:59:06;;;;;;;8.25;3.90;;;;;;;2.08;92.39;99947.88;4254903;27;20215;-83
2024/01/27 03:01:09;;;;;;;5.15;3.80;;;;;;;2.06;92.69;99947.03;4253679;27;20508;-83
2024/01/27 03:03:12;;;;;;;6.22;3.85;;;;;;;2.09;92.75;99943.59;4252174;27;20200;-83
2024/01/27 03:05:16;;;;;;;6.25;4.20;;;;;;;2.05;91.96;99935.03;4215635;27;20215;-83
2024/01/27 03:07:18;;;;;;;6.10;4.35;;;;;;;2.03;91.55;99946.19;4240310;27;20198;-83
2024/01/27 03:09:21;;;;;;;6.43;3.75;;;;;;;2.05;91.60;99945.31;4237199;27;20874;-83
2024/01/27 03:11:25;;;;;;;8.30;3.75;;;;;;;2.08;91.41;99944.47;4258233;27;20203;-81
2024/01/27 03:13:29;;;;;;;4.78;2.95;;;;;;;2.13;91.44;99946.13;4238681;27;20215;-81
2024/01/27 03:15:33;;;;;;;5.25;3.10;;;;;;;2.16;90.98;99942.69;4255259;27;20207;-81
2024/01/27 03:17:36;;;;;;;5.30;3.22;;;;;;;2.12;90.12;99941.00;4241670;27;20215;-81
2024/01/27 03:19:39;;;;;;;5.32;3.55;;;;;;;2.04;90.40;99938.47;4221193;28;20228;-83
2024/01/27 03:21:43;;;;;;;4.07;2.90;;;;;;;2.03;90.54;99941.91;4251958;27;20218;-83
2024/01/27 03:23:46;;;;;;;4.00;3.08;;;;;;;2.05;90.80;99942.75;4250201;27;20579;-83
2024/01/27 03:25:49;;;;;;;7.05;3.40;;;;;;;2.12;91.17;99951.28;4216124;28;20299;-83
2024/01/27 03:27:53;;;;;;;4.97;3.38;;;;;;;2.14;91.76;99949.59;4230771;27;20234;-83
2024/01/27 03:30:00;;;;;;;5.13;3.22;;;;;;;2.17;92.15;99949.56;4228998;27;20236;-82
2024/01/27 03:32:05;;;;;;;7.75;4.20;;;;;;;2.22;92.22;99953.78;4232565;27;20735;-83
2024/01/27 03:34:07;;;;;;;8.48;4.07;;;;;;;2.28;91.87;99947.78;4229169;27;20287;-83
2024/01/27 03:36:11;;;;;;;5.57;3.75;;;;;;;2.28;91.89;99951.19;4233787;27;20208;-83
2024/01/27 03:38:14;;;;;;;6.03;3.50;;;;;;;2.27;91.92;99961.50;4231678;27;20229;-83
2024/01/27 03:40:18;;;;;;;5.32;3.88;;;;;;;2.27;91.59;99948.63;4217770;28;20663;-83
2024/01/27 03:42:21;;;;;;;6.97;4.00;;;;;;;2.25;91.04;99947.78;4234070;27;20666;-83
2024/01/27 03:44:24;;;;;;;5.53;3.60;;;;;;;2.25;90.84;99947.78;4253832;27;20603;-82
2024/01/27 03:46:28;;;;;;;5.50;4.15;;;;;;;2.21;90.95;99952.13;4249489;27;20285;-83
2024/01/27 03:48:31;;;;;;;6.10;3.28;;;;;;;2.20;91.65;99955.53;4234144;27;20672;-83
2024/01/27 03:50:35;;;;;;;6.45;3.33;;;;;;;2.22;91.98;99963.25;4249024;27;20211;-80
2024/01/27 03:52:38;;;;;;;4.47;3.15;;;;;;;2.22;91.47;99968.38;4250749;27;20208;-81
2024/01/27 03:54:40;;;;;;;5.00;3.17;;;;;;;2.21;91.00;99966.66;4256682;27;20209;-81
2024/01/27 03:56:43;;;;;;;4.80;3.38;;;;;;;2.22;90.64;99970.97;4236986;27;20230;-80
2024/01/27 03:58:46;;;;;;;6.45;2.92;;;;;;;2.19;91.44;99973.56;4223730;27;20660;-80
2024/01/27 04:00:49;;;;;;;3.25;2.35;;;;;;;2.17;91.62;99971.00;4234017;27;20200;-80
2024/01/27 04:02:54;;;;;;;2.78;2.17;;;;;;;2.17;91.84;99971.00;4254594;27;20214;-80
2024/01/27 04:04:56;;;;;;;3.67;2.83;;;;;;;2.17;92.13;99973.56;4251871;27;20206;-80
2024/01/27 04:07:01;;;;;;;6.50;3.05;;;;;;;2.18;90.96;99971.84;4233066;27;20300;-80
2024/01/27 04:09:04;;;;;;;4.95;2.78;;;;;;;2.15;90.64;99972.72;4234912;27;20227;-80
2024/01/27 04:11:08;;;;;;;3.28;2.40;;;;;;;2.16;90.47;99971.84;4235965;27;20206;-80
2024/01/27 04:13:11;;;;;;;9.27;3.22;;;;;;;2.15;90.94;99974.41;4257299;27;20202;-83
2024/01/27 04:15:13;;;;;;;5.25;2.70;;;;;;;2.13;91.24;99978.72;4234940;27;20204;-83
2024/01/27 04:17:16;;;;;;;4.15;2.60;;;;;;;2.10;90.93;99976.16;4219665;27;20231;-83
2024/01/27 04:19:21;;;;;;;3.55;2.50;;;;;;;2.08;90.74;99975.34;4255084;27;20228;-82
2024/01/27 04:21:24;;;;;;;5.55;2.67;;;;;;;2.05;90.96;99980.50;4251797;27;20337;-83
2024/01/27 04:23:27;;;;;;;4.50;2.58;;;;;;;2.01;90.59;99979.63;4234020;27;20208;-83
2024/01/27 04:25:31;;;;;;;3.80;2.55;;;;;;;2.01;90.75;99973.63;4238538;27;20196;-83
2024/01/27 04:27:38;;;;;;;3.75;2.20;;;;;;;1.98;89.90;99984.78;4252130;27;20195;-82
2024/01/27 04:29:41;;;;;;;3.90;2.35;;;;;;;1.92;90.52;99977.13;4231949;27;20299;-82
2024/01/27 04:31:44;;;;;;;4.97;2.65;;;;;;;1.92;89.80;99984.84;4237532;27;20199;-82
2024/01/27 04:33:48;;;;;;;3.13;2.30;;;;;;;1.92;90.21;99986.53;4235116;27;20257;-83
2024/01/27 04:35:53;;;;;;;3.80;2.40;;;;;;;1.91;89.71;99979.72;4251650;27;20207;-83
2024/01/27 04:37:56;;;;;;;6.28;2.33;;;;;;;1.92;90.16;99978.81;4241241;27;21608;-83
2024/01/27 04:39:59;;;;;;;4.65;2.63;;;;;;;1.89;89.97;99973.69;4249374;27;20209;-83
2024/01/27 04:42:02;;;;;;;7.70;2.88;;;;;;;1.87;90.16;99985.72;4252309;27;20203;-82
2024/01/27 04:44:06;;;;;;;8.40;2.55;;;;;;;1.86;90.04;99986.56;4240245;27;20203;-82
2024/01/27 04:46:09;;;;;;;5.10;2.75;;;;;;;1.81;91.03;99985.72;4217837;28;20255;-83
2024/01/27 04:48:12;;;;;;;4.25;2.92;;;;;;;1.84;90.78;99990.03;4236875;27;20207;-82
2024/01/27 04:50:15;;;;;;;3.50;2.20;;;;;;;1.84;91.27;100001.16;4252613;27;21880;-83
2024/01/27 04:52:21;;;;;;;4.18;2.60;;;;;;;1.87;91.50;100003.72;4254206;27;20308;-83
2024/01/27 04:54:24;;;;;;;5.47;3.00;;;;;;;1.89;90.83;99995.13;4243173;27;20207;-80
2024/01/27 04:56:28;;;;;;;7.80;3.28;;;;;;;1.93;90.87;99998.53;4252477;27;20260;-80
2024/01/27 04:58:31;;;;;;;5.85;2.95;;;;;;;1.90;90.86;100006.28;4238568;27;20341;-80
2024/01/27 05:00:34;;;;;;;11.82;2.60;;;;;;;1.86;90.86;99996.84;4233370;27;20347;-80
2024/01/27 05:02:37;;;;;;;7.78;3.10;;;;;;;1.83;91.44;100002.00;4251190;27;20210;-80
2024/01/27 05:04:41;;;;;;;5.95;2.45;;;;;;;1.82;90.89;100004.56;4236742;27;20202;-80
2024/01/27 05:06:45;;;;;;;11.00;3.13;;;;;;;1.80;91.33;100008.88;4253723;27;20600;-80
2024/01/27 05:08:49;;;;;;;11.73;3.30;;;;;;;1.74;91.11;100004.59;4234398;27;20672;-82
2024/01/27 05:10:52;;;;;;;6.95;2.70;;;;;;;1.69;91.06;100008.91;4233586;27;20953;-82
2024/01/27 05:13:00;;;;;;;11.30;3.05;;;;;;;1.64;91.82;99999.50;4251368;27;20554;-83
2024/01/27 05:15:04;;;;;;;9.15;2.83;;;;;;;1.69;91.81;99996.06;4248883;27;20322;-83
2024/01/27 05:17:07;;;;;;;9.98;2.97;;;;;;;1.67;92.15;100007.19;4255214;27;20582;-83
2024/01/27 05:19:11;;;;;;;13.48;3.53;;;;;;;1.61;92.73;100004.63;4249429;27;20231;-82
2024/01/27 05:21:14;;;;;;;7.55;3.53;;;;;;;1.63;92.99;100003.78;4248687;27;20764;-83
2024/01/27 05:23:17;;;;;;;9.50;3.00;;;;;;;1.59;92.30;100012.34;4252646;27;20206;-80
2024/01/27 05:25:22;;;;;;;14.45;3.63;;;;;;;1.56;91.98;100003.81;4250599;27;20241;-80
2024/01/27 05:27:25;;;;;;;10.32;3.60;;;;;;;1.49;91.66;100008.09;4254871;27;20195;-80
2024/01/27 05:29:28;;;;;;;11.30;3.08;;;;;;;1.48;92.36;100013.25;4232897;27;20259;-80
2024/01/27 05:31:32;;;;;;;13.40;3.50;;;;;;;1.45;92.00;100013.25;4234597;27;20681;-80
2024/01/27 05:33:35;;;;;;;8.20;3.53;;;;;;;1.45;92.47;100020.97;4233613;27;20286;-82
2024/01/27 05:35:38;;;;;;;7.63;3.17;;;;;;;1.49;92.59;100018.38;4256275;27;20207;-83
2024/01/27 05:37:41;;;;;;;6.80;3.10;;;;;;;1.45;91.84;100014.09;4239929;27;20318;-83
2024/01/27 05:39:45;;;;;;;7.15;2.97;;;;;;;1.44;91.42;100014.09;4224356;27;20603;-83
2024/01/27 05:41:49;;;;;;;13.07;3.15;;;;;;;1.40;92.01;100005.56;4253378;27;20206;-83
2024/01/27 05:43:53;;;;;;;13.23;3.30;;;;;;;1.38;92.43;100006.41;4233851;27;20287;-83
2024/01/27 05:45:55;;;;;;;21.27;3.72;;;;;;;1.33;92.90;100004.72;4238518;27;20626;-84
2024/01/27 05:47:58;;;;;;;13.40;3.50;;;;;;;1.33;92.88;100015.00;4237942;27;20250;-84
2024/01/27 05:50:07;;;;;;;17.45;4.45;;;;;;;1.34;92.69;100012.44;4254589;27;20198;-84
2024/01/27 05:52:10;;;;;;;14.07;3.38;;;;;;;1.33;93.25;100015.00;4258064;27;20202;-83
2024/01/27 05:54:26;;;;;;;14.68;3.15;;;;;;;1.30;92.97;100015.00;4237186;27;20211;-84
2024/01/27 05:56:29;;;;;;;14.27;3.15;;;;;;;1.27;92.66;100015.00;4239254;27;20253;-83
2024/01/27 05:58:33;;;;;;;11.57;4.07;;;;;;;1.24;93.45;100018.41;4258929;27;20223;-83
2024/01/27 06:00:37;;;;;;;10.20;3.95;;;;;;;1.22;94.80;100016.69;4235739;27;20280;-83
2024/01/27 06:02:40;;;;;;;26.63;4.15;;;;;;;1.22;95.22;100016.69;4256319;27;20695;-83
2024/01/27 06:04:43;;;;;;;20.38;4.15;;;;;;;1.21;93.83;100015.00;4258978;27;20341;-83
2024/01/27 06:06:47;;;;;;;19.73;3.63;;;;;;;1.24;94.00;100017.56;4213905;27;20219;-83
2024/01/27 06:08:49;;;;;;;14.48;3.65;;;;;;;1.24;94.15;100017.56;4220812;27;20257;-83
2024/01/27 06:10:52;;;;;;;19.98;3.17;;;;;;;1.26;93.59;100026.13;4256113;27;20246;-83
2024/01/27 06:12:55;;;;;;;15.38;3.40;;;;;;;1.28;93.91;100021.84;4239842;27;20196;-83
2024/01/27 06:15:00;;;;;;;9.35;3.28;;;;;;;1.31;93.87;100020.13;4243754;27;20625;-83
2024/01/27 06:17:04;;;;;;;5.97;3.10;;;;;;;1.31;93.63;100009.84;4227100;27;20215;-83
2024/01/27 06:19:07;;;;;;;8.88;3.78;;;;;;;1.28;92.82;100027.84;4226910;27;20239;-83
2024/01/27 06:21:10;;;;;;;19.27;3.72;;;;;;;1.29;92.97;100028.69;4255984;27;20247;-83
2024/01/27 06:23:14;;;;;;;9.82;3.92;;;;;;;1.30;92.70;100030.41;4232319;27;20228;-83
2024/01/27 06:25:17;;;;;;;12.50;3.42;;;;;;;1.22;92.67;100030.41;4237269;27;20248;-83
2024/01/27 06:27:20;;;;;;;15.95;4.32;;;;;;;1.25;93.56;100040.69;4244500;27;20288;-83
2024/01/27 06:29:25;;;;;;;12.63;3.40;;;;;;;1.25;94.05;100037.25;4240977;27;20279;-83
2024/01/27 06:31:28;;;;;;;22.58;4.50;;;;;;;1.24;94.17;100040.69;4255716;27;20228;-83
2024/01/27 06:33:32;;;;;;;29.70;3.75;;;;;;;1.21;93.28;100035.56;4236250;27;20314;-83
2024/01/27 06:35:35;;;;;;;25.80;4.20;;;;;;;1.17;93.03;100033.84;4252666;27;20212;-83
2024/01/27 06:37:38;;;;;;;27.25;4.90;;;;;;;1.12;94.22;100030.41;4253367;27;20208;-83
2024/01/27 06:39:40;;;;;;;50.22;5.00;;;;;;;1.12;94.04;100038.13;4249534;27;20215;-83
2024/01/27 06:41:43;;;;;;;38.17;5.38;;;;;;;1.10;94.50;100033.00;4238847;27;20649;-83
2024/01/27 06:43:47;;;;;;;17.92;4.20;;;;;;;1.13;94.32;100039.84;4258097;27;20290;-83
2024/01/27 06:45:50;;;;;;;25.05;4.38;;;;;;;1.16;94.87;100029.56;4216593;27;20292;-83
2024/01/27 06:47:54;;;;;;;26.30;4.55;;;;;;;1.17;94.80;100034.69;4239916;27;20223;-83
2024/01/27 06:49:56;;;;;;;19.85;4.80;;;;;;;1.15;94.26;100046.69;4224228;27;20282;-83
2024/01/27 06:52:00;;;;;;;19.58;5.50;;;;;;;1.13;94.38;100047.56;4221132;27;20254;-83
2024/01/27 06:54:03;;;;;;;26.08;4.10;;;;;;;1.10;95.27;100043.25;4245984;27;20289;-82
2024/01/27 06:56:06;;;;;;;16.95;5.28;;;;;;;1.09;95.60;100046.69;4236276;27;20606;-82
2024/01/27 06:58:10;;;;;;;16.35;3.97;;;;;;;1.10;95.87;100039.84;4229430;27;20212;-82
2024/01/27 07:00:14;;;;;;;13.43;3.85;;;;;;;1.11;95.23;100042.41;4252999;27;20223;-82
2024/01/27 07:02:20;;;;;;;27.65;5.45;;;;;;;1.09;95.26;100051.81;4252718;27;20202;-83
2024/01/27 07:04:25;;;;;;;16.58;4.55;;;;;;;1.07;95.28;100047.56;4236858;27;20313;-82
2024/01/27 07:06:28;;;;;;;15.80;5.70;;;;;;;1.09;95.11;100045.84;4253242;27;20240;-83
2024/01/27 07:08:32;;;;;;;24.50;4.95;;;;;;;1.09;94.92;100045.84;4223854;27;20204;-83
2024/01/27 07:10:40;;;;;;;28.85;5.60;;;;;;;1.06;94.83;100054.38;4239553;27;20211;-83
2024/01/27 07:12:43;;;;;;;28.80;5.90;;;;;;;1.04;94.54;100055.25;4257100;27;20213;-82
2024/01/27 07:14:46;;;;;;;25.58;4.65;;;;;;;1.01;94.88;100055.25;4258264;27;20203;-82
2024/01/27 07:16:49;;;;;;;26.52;4.47;;;;;;;0.99;95.22;100068.09;4256122;27;20218;-82
2024/01/27 07:18:53;;;;;;;26.85;4.43;;;;;;;0.98;95.75;100071.50;4250430;27;20263;-81
2024/01/27 07:20:59;;;;;;;25.80;5.80;;;;;;;0.99;95.42;100080.06;4224762;27;20627;-81
2024/01/27 07:23:01;;;;;;;26.27;4.90;;;;;;;1.00;95.86;100074.91;4244023;27;20598;-81
2024/01/27 07:25:06;;;;;;;23.60;4.38;;;;;;;1.04;96.06;100079.22;4219910;27;20211;-81
2024/01/27 07:27:13;;;;;;;29.48;5.32;;;;;;;1.05;96.43;100077.50;4251749;27;20260;-81
2024/01/27 07:29:16;;;;;;;11.43;4.45;;;;;;;1.05;95.14;100068.09;4231468;27;20951;-80
2024/01/27 07:31:20;;;;;;;18.70;4.53;;;;;;;1.08;95.21;100068.09;4252747;27;20199;-80
2024/01/27 07:33:23;;;;;;;27.50;5.18;;;;;;;1.11;95.11;100072.34;4252432;27;20209;-80
2024/01/27 07:35:26;;;;;;;14.63;4.00;;;;;;;1.09;94.90;100077.50;4224770;27;20204;-81
2024/01/27 07:37:30;;;;;;;17.45;4.82;;;;;;;1.08;95.00;100073.25;4227166;27;20234;-80
2024/01/27 07:39:34;;;;;;;29.65;5.97;;;;;;;1.09;95.13;100071.50;4239764;27;20211;-80
2024/01/27 07:41:37;;;;;;;24.67;4.70;;;;;;;1.07;95.43;100068.09;4252593;27;20222;-80
2024/01/27 07:43:40;;;;;;;20.65;5.22;;;;;;;1.08;95.71;100068.09;4238398;27;20218;-81
2024/01/27 07:45:44;;;;;;;17.58;5.72;;;;;;;1.10;95.84;100088.66;4254171;27;20207;-80
2024/01/27 07:47:48;;;;;;;22.30;5.07;;;;;;;1.11;95.71;100077.50;4224249;27;20208;-80
2024/01/27 07:49:52;;;;;;;36.85;4.63;;;;;;;1.15;95.85;100074.09;4220160;27;20226;-80
2024/01/27 07:51:56;;;;;;;28.80;5.25;;;;;;;1.21;95.67;100069.78;4252448;27;20909;-80
2024/01/27 07:54:01;;;;;;;23.50;5.75;;;;;;;1.26;95.99;100080.91;4248889;27;20246;-81
2024/01/27 07:56:05;;;;;;;22.52;5.38;;;;;;;1.31;95.68;100081.81;4238091;27;20219;-81
2024/01/27 07:58:10;;;;;;;22.88;5.20;;;;;;;1.38;95.76;100096.34;4251404;27;20226;-81
2024/01/27 08:00:14;;;;;;;18.50;5.60;;;;;;;1.40;96.31;100090.34;4248925;27;20242;-81
2024/01/27 08:02:18;;;;;;;26.55;5.13;;;;;;;1.46;95.90;100090.34;4233501;27;20192;-81
2024/01/27 08:04:21;;;;;;;23.38;6.28;;;;;;;1.53;95.97;100093.75;4234911;27;20600;-81
2024/01/27 08:06:28;;;;;;;32.22;6.85;;;;;;;1.55;95.84;100085.22;4256493;27;20290;-81
2024/01/27 08:08:32;;;;;;;24.52;6.75;;;;;;;1.59;95.28;100086.03;4231555;27;20198;-81
2024/01/27 08:10:36;;;;;;;28.35;6.70;;;;;;;1.63;95.72;100083.47;4251010;27;20679;-80
2024/01/27 08:12:39;;;;;;;22.05;6.05;;;;;;;1.71;95.75;100075.75;4237556;27;20760;-82
2024/01/27 08:14:44;;;;;;;14.25;6.20;;;;;;;1.76;96.05;100074.91;4236571;27;20592;-83
2024/01/27 08:16:47;;;;;;;21.02;7.00;;;;;;;1.86;96.21;100075.72;4224972;27;20214;-82
2024/01/27 08:18:50;;;;;;;20.88;6.20;;;;;;;1.94;95.98;100085.13;4237296;27;20239;-82
2024/01/27 08:20:53;;;;;;;26.67;6.88;;;;;;;2.01;95.85;100086.81;4241360;27;20992;-82
2024/01/27 08:22:58;;;;;;;24.73;6.57;;;;;;;2.07;96.83;100094.53;4223225;28;20668;-82
2024/01/27 08:25:00;;;;;;;16.98;6.80;;;;;;;2.12;95.78;100097.94;4233638;27;20316;-82
2024/01/27 08:27:05;;;;;;;28.23;6.50;;;;;;;2.20;95.35;100106.50;4253808;27;20195;-82
2024/01/27 08:29:07;;;;;;;33.20;7.10;;;;;;;2.25;95.03;100105.59;4237014;27;20218;-83
2024/01/27 08:31:11;;;;;;;22.88;6.57;;;;;;;2.30;95.10;100103.88;4233999;27;20207;-81
2024/01/27 08:33:14;;;;;;;24.67;6.78;;;;;;;2.35;95.43;100103.00;4241856;27;20682;-81
2024/01/27 08:35:17;;;;;;;14.82;6.32;;;;;;;2.41;94.70;100100.41;4249878;27;20284;-83
2024/01/27 08:37:21;;;;;;;23.00;6.40;;;;;;;2.48;94.82;100102.09;4252023;27;20720;-81
2024/01/27 08:39:25;;;;;;;26.60;6.90;;;;;;;2.54;95.02;100102.06;4252967;27;20238;-84
2024/01/27 08:41:28;;;;;;;27.02;7.10;;;;;;;2.61;94.62;100098.56;4232490;27;20713;-83
2024/01/27 08:43:32;;;;;;;19.80;7.05;;;;;;;2.72;95.36;100094.25;4236092;27;20560;-83
2024/01/27 08:45:36;;;;;;;26.80;8.60;;;;;;;2.88;94.90;100098.44;4224330;28;20208;-83
2024/01/27 08:47:39;;;;;;;21.60;9.82;;;;;;;3.03;95.08;100095.78;4261129;27;20308;-81
2024/01/27 08:49:42;;;;;;;34.65;9.93;;;;;;;3.13;94.59;100105.13;4254803;27;20224;-82
2024/01/27 08:51:45;;;;;;;46.47;11.65;;;;;;;3.19;94.29;100094.78;4241895;27;20772;-82
2024/01/27 08:53:49;;;;;;;47.45;9.18;;;;;;;3.27;94.83;100099.88;4255408;27;20676;-82
2024/01/27 08:55:52;;;;;;;43.47;12.43;;;;;;;3.33;94.43;100094.66;4239189;27;20218;-82
2024/01/27 08:57:56;;;;;;;36.72;11.95;;;;;;;3.35;94.25;100092.06;4251920;27;20684;-82
2024/01/27 09:00:01;;;;;;;28.63;11.15;;;;;;;3.40;94.09;100085.19;4250096;27;20267;-83
2024/01/27 09:02:06;;;;;;;33.03;10.35;;;;;;;3.41;93.31;100089.44;4249391;27;20226;-82
2024/01/27 09:04:10;;;;;;;26.38;10.25;;;;;;;3.44;93.37;100085.16;4247686;27;20204;-81
2024/01/27 09:06:13;;;;;;;20.45;10.10;;;;;;;3.56;94.22;100085.00;4253574;27;20199;-81
2024/01/27 09:08:17;;;;;;;21.02;10.15;;;;;;;3.69;93.58;100088.34;4242510;27;20195;-82
2024/01/27 09:10:19;;;;;;;23.23;9.25;;;;;;;3.72;95.01;100089.19;4239575;27;20199;-84
2024/01/27 09:12:23;;;;;;;16.85;9.30;;;;;;;3.82;94.01;100085.66;4239639;27;20194;-81
2024/01/27 09:14:26;;;;;;;15.45;10.45;;;;;;;3.92;94.23;100080.34;4247828;27;20206;-82
2024/01/27 09:16:29;;;;;;;17.15;8.70;;;;;;;4.06;93.53;100085.38;4231784;27;20211;-82
2024/01/27 09:18:33;;;;;;;13.00;9.07;;;;;;;4.18;94.43;100087.81;4257990;27;20241;-82
2024/01/27 09:20:36;;;;;;;20.55;9.30;;;;;;;4.22;94.90;100088.66;4243381;27;20580;-82
2024/01/27 09:22:41;;;;;;;31.73;10.65;;;;;;;4.32;94.46;100090.22;4238383;27;20243;-81
2024/01/27 09:24:43;;;;;;;17.05;9.43;;;;;;;4.49;93.67;100098.63;4224503;27;20206;-80
2024/01/27 09:26:46;;;;;;;14.07;10.23;;;;;;;4.68;94.37;100100.13;4236123;27;20230;-80
2024/01/27 09:28:54;;;;;;;14.07;8.02;;;;;;;4.84;94.08;100096.44;4252693;27;20199;-80
2024/01/27 09:30:57;;;;;;;9.70;7.55;;;;;;;4.98;94.86;100099.72;4255152;27;20194;-80
2024/01/27 09:33:02;;;;;;;12.70;8.40;;;;;;;5.06;93.67;100090.94;4252905;27;20735;-81
2024/01/27 09:35:06;;;;;;;13.70;7.80;;;;;;;5.10;92.41;100089.16;4232607;27;20240;-80
2024/01/27 09:37:09;;;;;;;10.43;8.00;;;;;;;5.14;93.32;100096.84;4234145;27;20298;-81
2024/01/27 09:39:12;;;;;;;14.80;9.90;;;;;;;5.23;93.18;100096.72;4234089;27;20622;-80
2024/01/27 09:41:16;;;;;;;16.42;9.95;;;;;;;5.31;92.60;100100.06;4253554;27;20225;-82